createdAt,value
2018-06-02T00:00:02.040Z,95.03
2018-06-02T00:00:06.145Z,95.12
2018-06-02T00:00:10.255Z,94.93
2018-06-02T00:00:14.468Z,94.93
2018-06-02T00:00:18.354Z,94.83
2018-06-02T00:00:22.570Z,94.83
2018-06-02T00:00:26.776Z,95.12
2018-06-02T00:00:30.875Z,94.74
2018-06-02T00:00:34.984Z,94.74
2018-06-02T00:00:39.299Z,94.54
2018-06-02T00:00:43.621Z,94.93
2018-06-02T00:00:47.961Z,95.03
2018-06-02T00:00:52.282Z,95.03
2018-06-02T00:00:56.601Z,95.03
2018-06-02T00:01:00.704Z,95.07
2018-06-02T00:01:04.693Z,94.93
2018-06-02T00:01:08.797Z,95.31
2018-06-02T00:01:13.116Z,94.74
2018-06-02T00:01:17.329Z,95.12
2018-06-02T00:01:21.334Z,95.12
2018-06-02T00:01:25.348Z,95.03
2018-06-02T00:01:29.557Z,95.12
2018-06-02T00:01:33.659Z,95.03
2018-06-02T00:01:37.976Z,95.03
2018-06-02T00:01:42.299Z,95.12
2018-06-02T00:01:46.514Z,94.93
2018-06-02T00:01:50.623Z,95.12
2018-06-02T00:01:54.739Z,95.12
2018-06-02T00:01:58.963Z,95.31
2018-06-02T00:02:03.072Z,95.03
2018-06-02T00:02:07.180Z,94.93
2018-06-02T00:02:11.518Z,95.12
2018-06-02T00:02:15.727Z,95.21
2018-06-02T00:02:19.936Z,95.03
2018-06-02T00:02:23.936Z,94.93
2018-06-02T00:02:28.258Z,95.21
2018-06-02T00:02:32.358Z,95.12
2018-06-02T00:02:36.576Z,95.12
2018-06-02T00:02:40.797Z,94.93
2018-06-02T00:02:45.008Z,94.83
2018-06-02T00:02:49.227Z,94.93
2018-06-02T00:02:53.550Z,95.12
2018-06-02T00:02:57.776Z,94.83
2018-06-02T00:03:02.005Z,95.03
2018-06-02T00:03:06.340Z,94.93
2018-06-02T00:03:10.446Z,95.03
2018-06-02T00:03:14.441Z,94.74
2018-06-02T00:03:18.765Z,95.03
2018-06-02T00:03:22.979Z,94.93
2018-06-02T00:03:27.196Z,94.54
2018-06-02T00:03:31.411Z,94.64
2018-06-02T00:03:35.512Z,94.64
2018-06-02T00:03:39.725Z,94.35
2018-06-02T00:03:43.723Z,94.16
2018-06-02T00:03:48.035Z,94.35
2018-06-02T00:03:52.251Z,94.35
2018-06-02T00:03:56.465Z,94.54
2018-06-02T00:04:00.794Z,94.64
2018-06-02T00:04:05.022Z,94.54
2018-06-02T00:04:09.354Z,94.54
2018-06-02T00:04:13.571Z,94.64
2018-06-02T00:04:17.898Z,94.4
2018-06-02T00:04:22.006Z,94.45
2018-06-02T00:04:26.011Z,94.74
2018-06-02T00:04:30.349Z,94.83
2018-06-02T00:04:34.672Z,95.21
2018-06-02T00:04:38.991Z,94.93
2018-06-02T00:04:43.323Z,95.21
2018-06-02T00:04:47.648Z,95.21
2018-06-02T00:04:51.858Z,94.93
2018-06-02T00:04:56.074Z,94.93
2018-06-02T00:05:00.178Z,95.03
2018-06-02T00:05:04.396Z,95.12
2018-06-02T00:05:08.714Z,94.93
2018-06-02T00:05:12.928Z,95.21
2018-06-02T00:05:17.136Z,95.12
2018-06-02T00:05:21.237Z,95.03
2018-06-02T00:05:25.342Z,95.12
2018-06-02T00:05:29.548Z,94.54
2018-06-02T00:05:33.756Z,94.45
2018-06-02T00:05:37.870Z,94.54
2018-06-02T00:05:42.194Z,94.93
2018-06-02T00:05:46.407Z,94.74
2018-06-02T00:05:50.663Z,94.93
2018-06-02T00:05:54.981Z,95.03
2018-06-02T00:05:59.308Z,95.12
2018-06-02T00:06:03.518Z,95.12
2018-06-02T00:06:07.626Z,94.64
2018-06-02T00:06:11.834Z,94.35
2018-06-02T00:06:16.156Z,94.26
2018-06-02T00:06:20.478Z,94.26
2018-06-02T00:06:24.700Z,94.45
2018-06-02T00:06:28.913Z,94.26
2018-06-02T00:06:33.232Z,94.26
2018-06-02T00:06:37.552Z,94.26
2018-06-02T00:06:41.870Z,94.16
2018-06-02T00:06:46.088Z,94.16
2018-06-02T00:06:50.295Z,94.45
2018-06-02T00:06:54.506Z,94.45
2018-06-02T00:06:58.831Z,94.16
2018-06-02T00:07:02.867Z,94.35
2018-06-02T00:07:06.977Z,94.26
2018-06-02T00:07:11.306Z,94.45
2018-06-02T00:07:15.650Z,94.26
2018-06-02T00:07:19.862Z,94.35
2018-06-02T00:07:24.201Z,94.54
2018-06-02T00:07:28.409Z,94.35
2018-06-02T00:07:32.619Z,94.49
2018-06-02T00:07:36.836Z,94.35
2018-06-02T00:07:41.046Z,94.45
2018-06-02T00:07:45.256Z,94.35
2018-06-02T00:07:49.587Z,94.64
2018-06-02T00:07:53.588Z,94.54
2018-06-02T00:07:57.907Z,94.74
2018-06-02T00:08:02.049Z,94.35
2018-06-02T00:08:06.008Z,94.54
2018-06-02T00:08:10.215Z,94.74
2018-06-02T00:08:14.428Z,94.83
2018-06-02T00:08:18.747Z,94.35
2018-06-02T00:08:22.956Z,94.35
2018-06-02T00:08:27.169Z,95.03
2018-06-02T00:08:31.386Z,94.64
2018-06-02T00:08:35.716Z,94.45
2018-06-02T00:08:39.818Z,94.35
2018-06-02T00:08:44.026Z,94.54
2018-06-02T00:08:48.233Z,94.26
2018-06-02T00:08:52.346Z,94.64
2018-06-02T00:08:56.353Z,93.77
2018-06-02T00:09:00.563Z,94.07
2018-06-02T00:09:04.667Z,94.16
2018-06-02T00:09:08.774Z,94.16
2018-06-02T00:09:13.029Z,94.07
2018-06-02T00:09:17.350Z,94.26
2018-06-02T00:09:21.667Z,94.16
2018-06-02T00:09:25.661Z,94.45
2018-06-02T00:09:30.005Z,94.26
2018-06-02T00:09:34.000Z,94.26
2018-06-02T00:09:38.242Z,94.07
2018-06-02T00:09:42.568Z,94.35
2018-06-02T00:09:46.788Z,94.07
2018-06-02T00:09:51.109Z,94.35
2018-06-02T00:09:55.319Z,94.35
2018-06-02T00:09:59.640Z,94.35
2018-06-02T00:10:03.753Z,94.16
2018-06-02T00:10:07.857Z,93.92
2018-06-02T00:10:12.065Z,94.26
2018-06-02T00:10:16.388Z,94.26
2018-06-02T00:10:20.649Z,93.68
2018-06-02T00:10:24.967Z,93.68
2018-06-02T00:10:29.287Z,93.87
2018-06-02T00:10:33.494Z,93.68
2018-06-02T00:10:37.704Z,93.39
2018-06-02T00:10:41.922Z,93.49
2018-06-02T00:10:46.248Z,93.39
2018-06-02T00:10:50.355Z,93.39
2018-06-02T00:10:54.455Z,93.59
2018-06-02T00:10:58.671Z,93.59
2018-06-02T00:11:03.244Z,93.49
2018-06-02T00:11:07.588Z,93.59
2018-06-02T00:11:12.132Z,93.1
2018-06-02T00:11:16.676Z,92.82
2018-06-02T00:11:21.217Z,93.1
2018-06-02T00:11:25.499Z,93.1
2018-06-02T00:11:29.838Z,93.1
2018-06-02T00:11:33.939Z,93.01
2018-06-02T00:11:38.153Z,93.01
2018-06-02T00:11:42.282Z,92.91
2018-06-02T00:11:46.501Z,93.01
2018-06-02T00:11:50.819Z,93.01
2018-06-02T00:11:54.939Z,93.01
2018-06-02T00:11:59.150Z,93.2
2018-06-02T00:12:03.249Z,92.53
2018-06-02T00:12:07.244Z,92.72
2018-06-02T00:12:11.344Z,92.82
2018-06-02T00:12:15.553Z,92.63
2018-06-02T00:12:19.764Z,92.72
2018-06-02T00:12:24.084Z,92.63
2018-06-02T00:12:28.400Z,92.63
2018-06-02T00:12:32.714Z,92.63
2018-06-02T00:12:37.030Z,92.82
2018-06-02T00:12:41.248Z,92.72
2018-06-02T00:12:45.578Z,92.72
2018-06-02T00:12:49.905Z,92.72
2018-06-02T00:12:54.230Z,92.63
2018-06-02T00:12:58.438Z,92.33
2018-06-02T00:13:02.771Z,92.63
2018-06-02T00:13:06.872Z,92.63
2018-06-02T00:13:11.086Z,92.43
2018-06-02T00:13:15.296Z,92.53
2018-06-02T00:13:19.508Z,92.63
2018-06-02T00:13:23.823Z,92.63
2018-06-02T00:13:28.141Z,92.43
2018-06-02T00:13:32.354Z,92.82
2018-06-02T00:13:36.560Z,92.72
2018-06-02T00:13:40.877Z,92.63
2018-06-02T00:13:44.980Z,92.53
2018-06-02T00:13:49.090Z,92.53
2018-06-02T00:13:53.201Z,92.53
2018-06-02T00:13:57.425Z,92.63
2018-06-02T00:14:01.637Z,93.3
2018-06-02T00:14:05.631Z,92.72
2018-06-02T00:14:09.622Z,93.01
2018-06-02T00:14:13.942Z,92.72
2018-06-02T00:14:18.266Z,92.82
2018-06-02T00:14:22.587Z,93.1
2018-06-02T00:14:26.586Z,93.2
2018-06-02T00:14:30.811Z,93.2
2018-06-02T00:14:34.909Z,93.01
2018-06-02T00:14:39.010Z,92.82
2018-06-02T00:14:43.010Z,93.01
2018-06-02T00:14:47.353Z,93.01
2018-06-02T00:14:51.559Z,93.3
2018-06-02T00:14:55.769Z,93.87
2018-06-02T00:15:00.088Z,93.59
2018-06-02T00:15:04.088Z,93.39
2018-06-02T00:15:08.192Z,93.59
2018-06-02T00:15:12.294Z,93.39
2018-06-02T00:15:16.402Z,93.59
2018-06-02T00:15:20.612Z,93.49
2018-06-02T00:15:24.935Z,93.3
2018-06-02T00:15:29.144Z,93.3
2018-06-02T00:15:33.265Z,93.49
2018-06-02T00:15:37.588Z,93.59
2018-06-02T00:15:41.917Z,93.49
2018-06-02T00:15:46.019Z,93.39
2018-06-02T00:15:50.242Z,93.2
2018-06-02T00:15:54.457Z,93.3
2018-06-02T00:15:58.668Z,93.49
2018-06-02T00:16:02.776Z,93.68
2018-06-02T00:16:06.879Z,93.39
2018-06-02T00:16:11.203Z,93.59
2018-06-02T00:16:15.307Z,93.68
2018-06-02T00:16:19.523Z,93.68
2018-06-02T00:16:23.745Z,93.87
2018-06-02T00:16:27.961Z,93.87
2018-06-02T00:16:32.173Z,93.77
2018-06-02T00:16:36.419Z,93.77
2018-06-02T00:16:40.639Z,94.26
2018-06-02T00:16:44.961Z,93.97
2018-06-02T00:16:49.171Z,94.16
2018-06-02T00:16:53.494Z,94.16
2018-06-02T00:16:57.714Z,94.26
2018-06-02T00:17:01.922Z,94.26
2018-06-02T00:17:06.347Z,94.35
2018-06-02T00:17:10.673Z,93.77
2018-06-02T00:17:14.884Z,94.16
2018-06-02T00:17:19.212Z,94.07
2018-06-02T00:17:23.529Z,94.16
2018-06-02T00:17:27.737Z,94.26
2018-06-02T00:17:31.846Z,94.07
2018-06-02T00:17:36.054Z,94.35
2018-06-02T00:17:40.267Z,94.07
2018-06-02T00:17:44.644Z,94.45
2018-06-02T00:17:48.962Z,94.45
2018-06-02T00:17:53.185Z,94.07
2018-06-02T00:17:57.502Z,94.16
2018-06-02T00:18:01.813Z,94.35
2018-06-02T00:18:06.028Z,94.07
2018-06-02T00:18:10.133Z,94.26
2018-06-02T00:18:14.350Z,94.35
2018-06-02T00:18:18.667Z,93.97
2018-06-02T00:18:22.876Z,94.35
2018-06-02T00:18:27.205Z,93.87
2018-06-02T00:18:31.420Z,94.07
2018-06-02T00:18:35.632Z,94.16
2018-06-02T00:18:39.867Z,93.97
2018-06-02T00:18:44.079Z,93.77
2018-06-02T00:18:48.306Z,94.74
2018-06-02T00:18:52.635Z,94.45
2018-06-02T00:18:56.959Z,94.35
2018-06-02T00:19:01.187Z,94.16
2018-06-02T00:19:05.302Z,94.45
2018-06-02T00:19:09.512Z,94.16
2018-06-02T00:19:13.723Z,94.54
2018-06-02T00:19:17.939Z,94.26
2018-06-02T00:19:22.264Z,94.64
2018-06-02T00:19:26.478Z,94.35
2018-06-02T00:19:30.475Z,94.35
2018-06-02T00:19:34.684Z,94.64
2018-06-02T00:19:38.570Z,94.74
2018-06-02T00:19:42.686Z,95.03
2018-06-02T00:19:47.003Z,95.21
2018-06-02T00:19:51.324Z,95.12
2018-06-02T00:19:55.544Z,94.93
2018-06-02T00:19:59.878Z,95.03
2018-06-02T00:20:03.992Z,94.93
2018-06-02T00:20:08.216Z,94.93
2018-06-02T00:20:12.545Z,94.93
2018-06-02T00:20:16.652Z,94.74
2018-06-02T00:20:20.857Z,95.03
2018-06-02T00:20:25.188Z,94.83
2018-06-02T00:20:29.396Z,94.93
2018-06-02T00:20:33.726Z,95.31
2018-06-02T00:20:38.059Z,95.03
2018-06-02T00:20:42.374Z,95.03
2018-06-02T00:20:46.587Z,94.93
2018-06-02T00:20:50.806Z,95.21
2018-06-02T00:20:55.019Z,94.83
2018-06-02T00:20:59.235Z,95.03
2018-06-02T00:21:03.224Z,95.21
2018-06-02T00:21:07.443Z,95.21
2018-06-02T00:21:11.548Z,95.21
2018-06-02T00:21:15.877Z,95.03
2018-06-02T00:21:20.090Z,95.21
2018-06-02T00:21:24.409Z,94.93
2018-06-02T00:21:28.513Z,94.93
2018-06-02T00:21:32.728Z,95.03
2018-06-02T00:21:36.945Z,95.21
2018-06-02T00:21:41.156Z,95.21
2018-06-02T00:21:45.372Z,95.12
2018-06-02T00:21:49.590Z,94.93
2018-06-02T00:21:53.909Z,94.93
2018-06-02T00:21:58.229Z,94.93
2018-06-02T00:22:02.330Z,95.12
2018-06-02T00:22:06.542Z,95.03
2018-06-02T00:22:10.756Z,94.93
2018-06-02T00:22:14.860Z,94.93
2018-06-02T00:22:19.188Z,94.93
2018-06-02T00:22:23.397Z,94.93
2018-06-02T00:22:27.498Z,94.93
2018-06-02T00:22:31.615Z,94.93
2018-06-02T00:22:35.935Z,95.03
2018-06-02T00:22:40.142Z,95.12
2018-06-02T00:22:44.462Z,95.21
2018-06-02T00:22:48.674Z,94.45
2018-06-02T00:22:52.992Z,94.93
2018-06-02T00:22:57.104Z,94.93
2018-06-02T00:23:01.213Z,94.93
2018-06-02T00:23:05.546Z,94.93
2018-06-02T00:23:09.873Z,94.45
2018-06-02T00:23:14.087Z,94.45
2018-06-02T00:23:18.085Z,95.21
2018-06-02T00:23:22.295Z,95.21
2018-06-02T00:23:26.613Z,95.21
2018-06-02T00:23:30.825Z,95.12
2018-06-02T00:23:35.033Z,94.54
2018-06-02T00:23:39.249Z,94.35
2018-06-02T00:23:43.454Z,94.64
2018-06-02T00:23:47.771Z,94.45
2018-06-02T00:23:51.982Z,94.64
2018-06-02T00:23:56.090Z,94.35
2018-06-02T00:24:00.346Z,94.45
2018-06-02T00:24:04.495Z,94.35
2018-06-02T00:24:08.493Z,94.45
2018-06-02T00:24:12.708Z,94.45
2018-06-02T00:24:16.914Z,94.54
2018-06-02T00:24:21.125Z,93.77
2018-06-02T00:24:25.468Z,93.77
2018-06-02T00:24:29.805Z,94.16
2018-06-02T00:24:34.141Z,94.45
2018-06-02T00:24:38.470Z,94.07
2018-06-02T00:24:42.681Z,94.45
2018-06-02T00:24:46.675Z,94.45
2018-06-02T00:24:50.889Z,94.07
2018-06-02T00:24:55.207Z,94.16
2018-06-02T00:24:59.418Z,93.2
2018-06-02T00:25:03.629Z,93.77
2018-06-02T00:25:07.840Z,93.59
2018-06-02T00:25:11.942Z,93.49
2018-06-02T00:25:16.164Z,93.59
2018-06-02T00:25:20.372Z,93.49
2018-06-02T00:25:24.604Z,93.68
2018-06-02T00:25:28.817Z,93.49
2018-06-02T00:25:33.036Z,93.68
2018-06-02T00:25:37.355Z,93.59
2018-06-02T00:25:41.462Z,93.49
2018-06-02T00:25:45.576Z,93.49
2018-06-02T00:25:49.888Z,93.49
2018-06-02T00:25:53.882Z,93.49
2018-06-02T00:25:57.991Z,93.3
2018-06-02T00:26:02.141Z,93.59
2018-06-02T00:26:06.359Z,93.39
2018-06-02T00:26:10.468Z,93.59
2018-06-02T00:26:14.678Z,93.59
2018-06-02T00:26:18.784Z,93.68
2018-06-02T00:26:23.121Z,93.49
2018-06-02T00:26:27.231Z,93.49
2018-06-02T00:26:31.440Z,93.59
2018-06-02T00:26:35.653Z,93.59
2018-06-02T00:26:39.868Z,93.49
2018-06-02T00:26:43.979Z,93.39
2018-06-02T00:26:48.306Z,93.39
2018-06-02T00:26:52.624Z,93.59
2018-06-02T00:26:56.835Z,93.68
2018-06-02T00:27:01.167Z,93.49
2018-06-02T00:27:05.277Z,93.39
2018-06-02T00:27:09.484Z,93.49
2018-06-02T00:27:13.813Z,93.59
2018-06-02T00:27:18.143Z,93.59
2018-06-02T00:27:22.467Z,93.39
2018-06-02T00:27:26.685Z,93.39
2018-06-02T00:27:30.890Z,93.68
2018-06-02T00:27:35.002Z,93.77
2018-06-02T00:27:39.217Z,93.68
2018-06-02T00:27:43.318Z,93.01
2018-06-02T00:27:47.417Z,93.01
2018-06-02T00:27:51.632Z,93.1
2018-06-02T00:27:55.949Z,93.1
2018-06-02T00:28:00.054Z,93.1
2018-06-02T00:28:04.265Z,93.01
2018-06-02T00:28:08.482Z,93.1
2018-06-02T00:28:12.705Z,92.82
2018-06-02T00:28:16.808Z,93.01
2018-06-02T00:28:20.907Z,92.82
2018-06-02T00:28:25.010Z,93.01
2018-06-02T00:28:29.218Z,93.01
2018-06-02T00:28:33.321Z,93.1
2018-06-02T00:28:37.426Z,93.01
2018-06-02T00:28:41.530Z,92.91
2018-06-02T00:28:45.748Z,93.2
2018-06-02T00:28:50.071Z,92.82
2018-06-02T00:28:54.384Z,93.2
2018-06-02T00:28:58.595Z,93.2
2018-06-02T00:29:02.963Z,93.01
2018-06-02T00:29:07.176Z,92.53
2018-06-02T00:29:11.387Z,93.1
2018-06-02T00:29:15.606Z,93.1
2018-06-02T00:29:19.963Z,93.1
2018-06-02T00:29:24.287Z,93.01
2018-06-02T00:29:28.586Z,92.82
2018-06-02T00:29:32.801Z,92.82
2018-06-02T00:29:37.120Z,92.91
2018-06-02T00:29:41.329Z,93.1
2018-06-02T00:29:45.544Z,93.2
2018-06-02T00:29:49.778Z,93.2
2018-06-02T00:29:53.984Z,92.72
2018-06-02T00:29:58.306Z,92.72
2018-06-02T00:30:02.411Z,92.82
2018-06-02T00:30:06.299Z,92.82
2018-06-02T00:30:10.407Z,92.82
2018-06-02T00:30:14.632Z,92.82
2018-06-02T00:30:18.628Z,92.82
2018-06-02T00:30:22.844Z,92.82
2018-06-02T00:30:26.945Z,92.72
2018-06-02T00:30:31.278Z,92.43
2018-06-02T00:30:35.598Z,92.91
2018-06-02T00:30:39.817Z,93.01
2018-06-02T00:30:43.925Z,93.01
2018-06-02T00:30:48.141Z,92.14
2018-06-02T00:30:52.458Z,92.24
2018-06-02T00:30:56.670Z,92.14
2018-06-02T00:31:00.878Z,92.82
2018-06-02T00:31:04.552Z,92.82
2018-06-02T00:31:08.772Z,92.72
2018-06-02T00:31:12.873Z,92.05
2018-06-02T00:31:17.087Z,91.96
2018-06-02T00:31:21.191Z,92.33
2018-06-02T00:31:25.402Z,92.14
2018-06-02T00:31:29.519Z,91.86
2018-06-02T00:31:33.770Z,91.96
2018-06-02T00:31:37.866Z,91.86
2018-06-02T00:31:41.962Z,92.05
2018-06-02T00:31:46.175Z,91.96
2018-06-02T00:31:50.379Z,92.33
2018-06-02T00:31:54.586Z,91.96
2018-06-02T00:31:58.906Z,92.05
2018-06-02T00:32:03.058Z,92.05
2018-06-02T00:32:07.273Z,91.76
2018-06-02T00:32:11.483Z,91.66
2018-06-02T00:32:15.811Z,91.57
2018-06-02T00:32:20.135Z,92.14
2018-06-02T00:32:24.346Z,91.47
2018-06-02T00:32:28.561Z,91.28
2018-06-02T00:32:32.890Z,91.66
2018-06-02T00:32:36.996Z,91.86
2018-06-02T00:32:41.206Z,91.76
2018-06-02T00:32:45.091Z,91.86
2018-06-02T00:32:49.199Z,91.66
2018-06-02T00:32:53.518Z,91.62
2018-06-02T00:32:57.518Z,91.66
2018-06-02T00:33:01.849Z,91.86
2018-06-02T00:33:05.954Z,91.57
2018-06-02T00:33:10.167Z,91.47
2018-06-02T00:33:14.484Z,91.47
2018-06-02T00:33:18.812Z,91.38
2018-06-02T00:33:22.916Z,91.19
2018-06-02T00:33:27.023Z,91.09
2018-06-02T00:33:31.339Z,90.9
2018-06-02T00:33:35.557Z,91.09
2018-06-02T00:33:39.878Z,90.8
2018-06-02T00:33:44.094Z,90.9
2018-06-02T00:33:48.409Z,91.14
2018-06-02T00:33:52.743Z,91.09
2018-06-02T00:33:57.070Z,91.28
2018-06-02T00:34:01.291Z,91.09
2018-06-02T00:34:05.438Z,90.7
2018-06-02T00:34:09.653Z,91.09
2018-06-02T00:34:14.023Z,90.9
2018-06-02T00:34:18.235Z,90.52
2018-06-02T00:34:22.556Z,90.03
2018-06-02T00:34:26.889Z,89.99
2018-06-02T00:34:30.987Z,90.32
2018-06-02T00:34:35.097Z,90.03
2018-06-02T00:34:39.311Z,90.03
2018-06-02T00:34:43.669Z,90.03
2018-06-02T00:34:47.992Z,90.03
2018-06-02T00:34:52.309Z,90.61
2018-06-02T00:34:56.528Z,90.7
2018-06-02T00:35:00.735Z,90.18
2018-06-02T00:35:04.907Z,90.56
2018-06-02T00:35:09.123Z,90.52
2018-06-02T00:35:13.223Z,90.66
2018-06-02T00:35:17.545Z,90.66
2018-06-02T00:35:21.761Z,90.52
2018-06-02T00:35:25.983Z,90.18
2018-06-02T00:35:30.199Z,90.22
2018-06-02T00:35:34.445Z,90.08
2018-06-02T00:35:38.767Z,90.22
2018-06-02T00:35:42.878Z,90.37
2018-06-02T00:35:47.199Z,90.28
2018-06-02T00:35:51.518Z,89.89
2018-06-02T00:35:55.619Z,90.13
2018-06-02T00:35:59.727Z,90.08
2018-06-02T00:36:03.929Z,90.08
2018-06-02T00:36:07.818Z,89.99
2018-06-02T00:36:12.035Z,89.99
2018-06-02T00:36:16.253Z,90.18
2018-06-02T00:36:20.463Z,89.99
2018-06-02T00:36:24.779Z,90.28
2018-06-02T00:36:28.990Z,90.47
2018-06-02T00:36:33.095Z,90.18
2018-06-02T00:36:37.420Z,89.99
2018-06-02T00:36:41.525Z,90.28
2018-06-02T00:36:45.851Z,90.28
2018-06-02T00:36:50.073Z,90.37
2018-06-02T00:36:54.194Z,90.37
2018-06-02T00:36:58.408Z,90.08
2018-06-02T00:37:02.562Z,90.28
2018-06-02T00:37:06.453Z,90.42
2018-06-02T00:37:10.662Z,90.37
2018-06-02T00:37:14.868Z,90.47
2018-06-02T00:37:18.978Z,90.18
2018-06-02T00:37:23.190Z,90.37
2018-06-02T00:37:27.518Z,90.66
2018-06-02T00:37:31.615Z,90.18
2018-06-02T00:37:35.839Z,90.66
2018-06-02T00:37:40.154Z,90.08
2018-06-02T00:37:44.363Z,90.08
2018-06-02T00:37:48.582Z,90.28
2018-06-02T00:37:52.794Z,90.28
2018-06-02T00:37:57.026Z,89.7
2018-06-02T00:38:01.239Z,90.08
2018-06-02T00:38:05.613Z,89.89
2018-06-02T00:38:09.830Z,89.99
2018-06-02T00:38:14.038Z,90.18
2018-06-02T00:38:18.142Z,90.28
2018-06-02T00:38:22.351Z,90.28
2018-06-02T00:38:26.567Z,90.18
2018-06-02T00:38:30.882Z,90.28
2018-06-02T00:38:34.877Z,90.08
2018-06-02T00:38:39.092Z,90.28
2018-06-02T00:38:43.311Z,90.47
2018-06-02T00:38:47.528Z,89.89
2018-06-02T00:38:51.635Z,90.18
2018-06-02T00:38:55.759Z,89.89
2018-06-02T00:38:59.977Z,89.79
2018-06-02T00:39:04.310Z,89.99
2018-06-02T00:39:08.436Z,89.89
2018-06-02T00:39:12.758Z,89.99
2018-06-02T00:39:17.076Z,89.79
2018-06-02T00:39:21.286Z,90.08
2018-06-02T00:39:25.609Z,90.08
2018-06-02T00:39:29.712Z,89.79
2018-06-02T00:39:33.924Z,89.79
2018-06-02T00:39:38.245Z,89.7
2018-06-02T00:39:42.349Z,89.79
2018-06-02T00:39:46.673Z,90.08
2018-06-02T00:39:51.011Z,90.28
2018-06-02T00:39:55.344Z,90.28
2018-06-02T00:39:59.453Z,90.47
2018-06-02T00:40:03.711Z,90.28
2018-06-02T00:40:07.598Z,89.99
2018-06-02T00:40:11.702Z,90.28
2018-06-02T00:40:15.916Z,90.08
2018-06-02T00:40:20.020Z,90.37
2018-06-02T00:40:24.230Z,90.08
2018-06-02T00:40:28.439Z,90.47
2018-06-02T00:40:32.540Z,90.28
2018-06-02T00:40:36.857Z,90.08
2018-06-02T00:40:40.967Z,89.79
2018-06-02T00:40:45.183Z,89.99
2018-06-02T00:40:49.286Z,89.89
2018-06-02T00:40:53.508Z,89.79
2018-06-02T00:40:57.722Z,89.89
2018-06-02T00:41:01.824Z,89.79
2018-06-02T00:41:05.726Z,89.79
2018-06-02T00:41:09.941Z,89.89
2018-06-02T00:41:14.159Z,89.61
2018-06-02T00:41:18.372Z,89.7
2018-06-02T00:41:22.685Z,89.51
2018-06-02T00:41:26.999Z,89.51
2018-06-02T00:41:31.327Z,89.51
2018-06-02T00:41:35.434Z,89.61
2018-06-02T00:41:39.435Z,89.51
2018-06-02T00:41:43.652Z,89.61
2018-06-02T00:41:47.870Z,89.51
2018-06-02T00:41:52.108Z,90.08
2018-06-02T00:41:56.320Z,90.08
2018-06-02T00:42:00.536Z,89.79
2018-06-02T00:42:04.689Z,90.08
2018-06-02T00:42:08.902Z,90.08
2018-06-02T00:42:13.220Z,89.51
2018-06-02T00:42:17.323Z,89.7
2018-06-02T00:42:21.532Z,90.08
2018-06-02T00:42:25.747Z,89.89
2018-06-02T00:42:29.961Z,89.99
2018-06-02T00:42:34.067Z,89.7
2018-06-02T00:42:38.282Z,90.08
2018-06-02T00:42:42.493Z,90.08
2018-06-02T00:42:46.816Z,90.47
2018-06-02T00:42:51.142Z,90.47
2018-06-02T00:42:55.243Z,89.89
2018-06-02T00:42:59.564Z,90.28
2018-06-02T00:43:03.559Z,89.99
2018-06-02T00:43:07.775Z,90.18
2018-06-02T00:43:11.890Z,90.08
2018-06-02T00:43:16.211Z,89.99
2018-06-02T00:43:20.436Z,89.7
2018-06-02T00:43:24.763Z,89.99
2018-06-02T00:43:28.988Z,89.79
2018-06-02T00:43:33.314Z,89.89
2018-06-02T00:43:37.519Z,90.08
2018-06-02T00:43:41.512Z,90.28
2018-06-02T00:43:45.729Z,89.99
2018-06-02T00:43:49.829Z,90.08
2018-06-02T00:43:53.929Z,89.99
2018-06-02T00:43:58.256Z,90.18
2018-06-02T00:44:02.477Z,90.08
2018-06-02T00:44:06.583Z,90.18
2018-06-02T00:44:10.800Z,89.79
2018-06-02T00:44:15.119Z,89.99
2018-06-02T00:44:19.332Z,89.51
2018-06-02T00:44:23.543Z,89.79
2018-06-02T00:44:27.453Z,89.61
2018-06-02T00:44:31.663Z,89.12
2018-06-02T00:44:35.880Z,89.22
2018-06-02T00:44:39.984Z,89.12
2018-06-02T00:44:44.311Z,88.74
2018-06-02T00:44:48.625Z,88.65
2018-06-02T00:44:52.848Z,88.84
2018-06-02T00:44:57.063Z,88.74
2018-06-02T00:45:01.057Z,88.45
2018-06-02T00:45:04.835Z,89.03
2018-06-02T00:45:09.159Z,89.41
2018-06-02T00:45:13.485Z,89.03
2018-06-02T00:45:17.696Z,89.22
2018-06-02T00:45:21.905Z,88.93
2018-06-02T00:45:26.227Z,89.12
2018-06-02T00:45:30.555Z,89.22
2018-06-02T00:45:34.878Z,89.12
2018-06-02T00:45:39.099Z,89.12
2018-06-02T00:45:43.306Z,89.32
2018-06-02T00:45:47.624Z,89.03
2018-06-02T00:45:51.944Z,89.32
2018-06-02T00:45:56.189Z,89.12
2018-06-02T00:46:00.409Z,88.74
2018-06-02T00:46:04.733Z,89.03
2018-06-02T00:46:09.055Z,88.74
2018-06-02T00:46:13.271Z,88.35
2018-06-02T00:46:17.480Z,88.35
2018-06-02T00:46:21.692Z,88.55
2018-06-02T00:46:25.908Z,89.03
2018-06-02T00:46:30.222Z,88.84
2018-06-02T00:46:34.346Z,88.74
2018-06-02T00:46:38.557Z,88.45
2018-06-02T00:46:42.871Z,88.65
2018-06-02T00:46:46.982Z,88.74
2018-06-02T00:46:51.311Z,88.93
2018-06-02T00:46:55.522Z,88.74
2018-06-02T00:46:59.632Z,88.93
2018-06-02T00:47:03.735Z,88.84
2018-06-02T00:47:07.835Z,88.55
2018-06-02T00:47:12.049Z,88.84
2018-06-02T00:47:16.259Z,88.74
2018-06-02T00:47:20.475Z,89.32
2018-06-02T00:47:24.577Z,89.03
2018-06-02T00:47:28.831Z,89.03
2018-06-02T00:47:33.047Z,89.12
2018-06-02T00:47:37.369Z,89.22
2018-06-02T00:47:41.691Z,89.22
2018-06-02T00:47:45.905Z,89.12
2018-06-02T00:47:50.119Z,89.12
2018-06-02T00:47:54.329Z,89.22
2018-06-02T00:47:58.650Z,89.41
2018-06-02T00:48:02.742Z,89.22
2018-06-02T00:48:06.995Z,88.35
2018-06-02T00:48:11.225Z,89.03
2018-06-02T00:48:15.326Z,88.55
2018-06-02T00:48:19.538Z,89.03
2018-06-02T00:48:23.749Z,88.26
2018-06-02T00:48:28.068Z,88.93
2018-06-02T00:48:32.279Z,88.84
2018-06-02T00:48:36.277Z,88.84
2018-06-02T00:48:40.492Z,88.65
2018-06-02T00:48:44.592Z,88.93
2018-06-02T00:48:48.802Z,88.26
2018-06-02T00:48:53.123Z,88.17
2018-06-02T00:48:57.333Z,88.35
2018-06-02T00:49:01.552Z,88.45
2018-06-02T00:49:05.552Z,88.55
2018-06-02T00:49:09.873Z,87.88
2018-06-02T00:49:14.190Z,87.68
2018-06-02T00:49:18.297Z,87.78
2018-06-02T00:49:22.503Z,87.78
2018-06-02T00:49:26.509Z,87.59
2018-06-02T00:49:30.725Z,87.68
2018-06-02T00:49:35.046Z,87.88
2018-06-02T00:49:39.457Z,87.78
2018-06-02T00:49:43.831Z,87.88
2018-06-02T00:49:48.151Z,87.78
2018-06-02T00:49:52.381Z,87.68
2018-06-02T00:49:56.602Z,87.78
2018-06-02T00:50:00.913Z,87.68
2018-06-02T00:50:05.138Z,87.78
2018-06-02T00:50:09.243Z,88.07
2018-06-02T00:50:13.450Z,87.88
2018-06-02T00:50:17.667Z,87.88
2018-06-02T00:50:21.877Z,87.59
2018-06-02T00:50:26.191Z,87.59
2018-06-02T00:50:30.504Z,87.78
2018-06-02T00:50:34.731Z,87.59
2018-06-02T00:50:38.834Z,87.88
2018-06-02T00:50:43.042Z,87.88
2018-06-02T00:50:47.268Z,87.88
2018-06-02T00:50:51.375Z,87.78
2018-06-02T00:50:55.477Z,87.49
2018-06-02T00:50:59.687Z,87.59
2018-06-02T00:51:04.097Z,87.3
2018-06-02T00:51:08.319Z,87.78
2018-06-02T00:51:12.433Z,87.78
2018-06-02T00:51:16.645Z,87.88
2018-06-02T00:51:20.962Z,87.78
2018-06-02T00:51:25.174Z,87.21
2018-06-02T00:51:29.274Z,87.98
2018-06-02T00:51:33.482Z,87.98
2018-06-02T00:51:37.688Z,87.88
2018-06-02T00:51:41.899Z,87.78
2018-06-02T00:51:46.002Z,87.68
2018-06-02T00:51:50.224Z,87.88
2018-06-02T00:51:54.545Z,87.88
2018-06-02T00:51:58.765Z,88.35
2018-06-02T00:52:02.874Z,88.35
2018-06-02T00:52:06.985Z,87.4
2018-06-02T00:52:11.085Z,88.35
2018-06-02T00:52:15.293Z,88.17
2018-06-02T00:52:19.500Z,88.07
2018-06-02T00:52:23.602Z,87.59
2018-06-02T00:52:27.709Z,87.59
2018-06-02T00:52:31.811Z,88.07
2018-06-02T00:52:36.134Z,87.4
2018-06-02T00:52:40.349Z,88.17
2018-06-02T00:52:44.343Z,87.4
2018-06-02T00:52:48.705Z,88.26
2018-06-02T00:52:53.025Z,88.07
2018-06-02T00:52:57.240Z,87.98
2018-06-02T00:53:01.453Z,87.59
2018-06-02T00:53:05.664Z,87.78
2018-06-02T00:53:09.988Z,88.17
2018-06-02T00:53:14.208Z,88.17
2018-06-02T00:53:18.422Z,87.98
2018-06-02T00:53:22.415Z,87.4
2018-06-02T00:53:26.622Z,87.98
2018-06-02T00:53:30.951Z,87.98
2018-06-02T00:53:35.158Z,87.78
2018-06-02T00:53:39.265Z,88.26
2018-06-02T00:53:43.364Z,87.88
2018-06-02T00:53:47.682Z,88.26
2018-06-02T00:53:51.783Z,88.17
2018-06-02T00:53:56.106Z,87.3
2018-06-02T00:54:00.428Z,87.4
2018-06-02T00:54:04.637Z,88.17
2018-06-02T00:54:08.846Z,87.59
2018-06-02T00:54:12.738Z,87.68
2018-06-02T00:54:17.079Z,88.17
2018-06-02T00:54:21.192Z,88.07